createdAt,value
2022-11-15T00:01:44.832Z,3.58
2022-11-15T00:04:30.393Z,3.70
2022-11-15T00:07:40.425Z,3.72
2022-11-15T00:10:21.607Z,4.07
2022-11-15T00:13:08.931Z,3.78
2022-11-15T00:15:58.244Z,3.67
2022-11-15T00:18:49.318Z,2.80
2022-11-15T00:21:36.876Z,3.10
2022-11-15T00:24:22.440Z,3.88
2022-11-15T00:27:08.396Z,3.28
2022-11-15T00:29:54.041Z,2.75
2022-11-15T00:32:39.656Z,3.53
2022-11-15T00:35:25.234Z,3.72
2022-11-15T00:38:11.031Z,3.05
2022-11-15T00:40:56.500Z,3.10
2022-11-15T00:43:41.941Z,3.20
2022-11-15T00:46:27.428Z,3.35
2022-11-15T00:49:13.195Z,3.60
2022-11-15T00:51:59.148Z,2.40
2022-11-15T00:54:44.647Z,3.10
2022-11-15T00:57:30.504Z,3.30
2022-11-15T01:00:16.622Z,3.70
2022-11-15T01:03:02.715Z,3.13
2022-11-15T01:05:48.609Z,3.17
2022-11-15T01:08:34.047Z,2.95
2022-11-15T01:11:19.555Z,3.05
2022-11-15T01:14:05.186Z,3.20
2022-11-15T01:16:51.014Z,2.85
2022-11-15T01:19:36.851Z,2.35
2022-11-15T01:22:23.343Z,2.30
2022-11-15T01:25:08.872Z,2.50
2022-11-15T01:27:54.617Z,2.58
2022-11-15T01:30:40.189Z,2.90
2022-11-15T01:33:25.668Z,3.30
2022-11-15T01:36:16.778Z,2.78
2022-11-15T01:39:03.294Z,2.80
2022-11-15T01:41:49.351Z,2.92
2022-11-15T01:44:35.272Z,2.95
2022-11-15T01:47:26.124Z,2.88
2022-11-15T01:50:15.623Z,3.17
2022-11-15T01:53:01.868Z,3.28
2022-11-15T01:55:47.985Z,3.40
2022-11-15T01:58:34.244Z,3.25
2022-11-15T02:01:20.569Z,3.00
2022-11-15T02:04:22.566Z,3.17
2022-11-15T02:07:10.879Z,3.45
2022-11-15T02:10:05.198Z,3.55
2022-11-15T02:12:52.001Z,4.63
2022-11-15T02:16:03.373Z,3.50
2022-11-15T02:19:00.927Z,4.00
2022-11-15T02:22:20.314Z,4.10
2022-11-15T02:25:15.058Z,4.22
2022-11-15T02:28:45.231Z,4.20
2022-11-15T02:31:53.035Z,4.00
2022-11-15T02:35:17.310Z,3.95
2022-11-15T02:38:20.974Z,3.40
2022-11-15T02:41:36.146Z,3.58
2022-11-15T02:44:34.360Z,4.15
2022-11-15T02:47:21.923Z,3.88
2022-11-15T02:50:11.165Z,4.00
2022-11-15T02:52:57.146Z,4.10
2022-11-15T02:55:46.320Z,3.13
2022-11-15T02:59:06.733Z,3.15
2022-11-15T03:02:17.034Z,3.00
2022-11-15T03:05:19.165Z,3.08
2022-11-15T03:08:19.121Z,2.53
2022-11-15T03:11:16.729Z,2.65
2022-11-15T03:14:11.207Z,2.53
2022-11-15T03:17:11.280Z,2.30
2022-11-15T03:19:59.681Z,2.45
2022-11-15T03:22:48.073Z,3.55
2022-11-15T03:25:35.859Z,2.80
2022-11-15T03:31:13.393Z,3.05
2022-11-15T03:34:03.153Z,2.30
2022-11-15T03:36:50.582Z,3.08
2022-11-15T03:39:36.158Z,2.75
2022-11-15T03:42:33.880Z,2.40
2022-11-15T03:45:33.074Z,2.30
2022-11-15T03:48:25.145Z,2.38
2022-11-15T03:51:12.194Z,2.05
2022-11-15T03:53:57.529Z,1.85
2022-11-15T03:56:43.113Z,1.85
2022-11-15T03:59:28.766Z,1.95
2022-11-15T04:02:15.106Z,2.10
2022-11-15T04:05:01.056Z,2.20
2022-11-15T04:07:46.682Z,2.38
2022-11-15T04:10:32.875Z,2.17
2022-11-15T04:13:18.448Z,2.75
2022-11-15T04:16:04.230Z,2.38
2022-11-15T04:18:49.890Z,2.40
2022-11-15T04:21:35.853Z,2.35
2022-11-15T04:24:21.278Z,2.05
2022-11-15T04:27:06.755Z,2.40
2022-11-15T04:29:52.283Z,2.53
2022-11-15T04:32:38.123Z,2.28
2022-11-15T04:35:24.158Z,2.00
2022-11-15T04:38:11.360Z,1.80
2022-11-15T04:40:56.980Z,2.23
2022-11-15T04:43:42.324Z,1.65
2022-11-15T04:46:27.876Z,1.70
2022-11-15T04:49:13.655Z,1.85
2022-11-15T04:51:59.413Z,1.70
2022-11-15T04:54:44.974Z,1.83
2022-11-15T04:57:30.548Z,1.63
2022-11-15T05:00:17.650Z,1.58
2022-11-15T05:03:03.829Z,1.95
2022-11-15T05:05:49.399Z,1.63
2022-11-15T05:08:35.405Z,1.80
2022-11-15T05:11:21.294Z,1.80
2022-11-15T05:14:06.953Z,1.60
2022-11-15T05:16:52.405Z,2.03
2022-11-15T05:19:37.711Z,1.42
2022-11-15T05:22:23.215Z,1.55
2022-11-15T05:25:09.087Z,1.33
2022-11-15T05:27:54.898Z,1.80
2022-11-15T05:30:40.556Z,1.48
2022-11-15T05:33:25.980Z,1.27
2022-11-15T05:36:34.457Z,1.73
2022-11-15T05:39:20.252Z,1.38
2022-11-15T05:42:16.203Z,1.50
2022-11-15T05:45:05.713Z,1.90
2022-11-15T05:47:52.403Z,1.20
2022-11-15T05:50:41.954Z,1.90
2022-11-15T05:53:27.886Z,1.27
2022-11-15T05:56:14.949Z,1.30
2022-11-15T05:59:00.811Z,2.10
2022-11-15T06:01:46.858Z,1.77
2022-11-15T06:04:32.580Z,1.63
2022-11-15T06:07:18.684Z,1.52
2022-11-15T06:10:04.744Z,1.55
2022-11-15T06:13:00.733Z,1.92
2022-11-15T06:15:46.638Z,1.63
2022-11-15T06:18:34.085Z,2.70
2022-11-15T06:21:20.399Z,2.13
2022-11-15T06:24:06.879Z,2.60
2022-11-15T06:26:53.207Z,1.98
2022-11-15T06:29:38.635Z,1.58
2022-11-15T06:32:24.788Z,1.55
2022-11-15T06:35:10.571Z,1.23
2022-11-15T06:37:56.695Z,1.50
2022-11-15T06:40:42.217Z,1.60
2022-11-15T06:43:27.799Z,1.70
2022-11-15T06:46:13.798Z,2.25
2022-11-15T06:48:59.275Z,1.48
2022-11-15T06:51:44.848Z,2.03
2022-11-15T06:54:30.568Z,1.60
2022-11-15T06:57:16.177Z,1.40
2022-11-15T07:00:02.510Z,1.70
2022-11-15T07:02:49.494Z,1.67
2022-11-15T07:05:35.695Z,1.20
2022-11-15T07:08:21.957Z,1.52
2022-11-15T07:11:08.925Z,1.67
2022-11-15T07:13:54.279Z,1.60
2022-11-15T07:16:39.938Z,1.90
2022-11-15T07:19:25.238Z,1.40
2022-11-15T07:22:10.699Z,1.70
2022-11-15T07:24:56.470Z,1.55
2022-11-15T07:27:42.135Z,1.63
2022-11-15T07:30:28.204Z,2.03
2022-11-15T07:33:13.780Z,2.00
2022-11-15T07:36:00.873Z,1.52
2022-11-15T07:38:46.583Z,2.13
2022-11-15T07:41:32.051Z,1.20
2022-11-15T07:44:17.645Z,2.55
2022-11-15T07:47:03.511Z,1.48
2022-11-15T07:49:48.908Z,1.42
2022-11-15T07:52:34.490Z,1.80
2022-11-15T07:55:20.072Z,2.20
2022-11-15T07:58:07.895Z,2.03
2022-11-15T08:00:53.435Z,2.10
2022-11-15T08:03:39.111Z,2.10
2022-11-15T08:06:24.979Z,2.40
2022-11-15T08:09:10.338Z,2.60
2022-11-15T08:11:55.693Z,2.28
2022-11-15T08:14:41.413Z,1.40
2022-11-15T08:17:27.410Z,1.35
2022-11-15T08:20:13.065Z,1.52
2022-11-15T08:23:02.829Z,1.80
2022-11-15T08:25:48.674Z,1.55
2022-11-15T08:28:34.116Z,1.90
2022-11-15T08:31:20.045Z,2.25
2022-11-15T08:34:06.710Z,2.92
2022-11-15T08:36:52.490Z,2.80
2022-11-15T08:39:38.390Z,2.30
2022-11-15T08:42:23.896Z,2.60
2022-11-15T08:45:09.748Z,2.25
2022-11-15T08:47:55.354Z,1.40
2022-11-15T08:50:41.111Z,1.48
2022-11-15T08:53:26.612Z,1.52
2022-11-15T08:56:14.491Z,1.30
2022-11-15T08:59:00.054Z,1.65
2022-11-15T09:01:45.995Z,2.00
2022-11-15T09:04:31.730Z,1.50
2022-11-15T09:07:17.718Z,1.90
2022-11-15T09:10:03.990Z,1.35
2022-11-15T09:12:49.751Z,1.40
2022-11-15T09:15:35.483Z,1.60
2022-11-15T09:18:22.311Z,2.22
2022-11-15T09:21:08.431Z,1.73
2022-11-15T09:23:54.274Z,1.95
2022-11-15T09:26:40.393Z,1.77
2022-11-15T09:29:26.208Z,1.88
2022-11-15T09:32:11.577Z,1.60
2022-11-15T09:34:57.932Z,2.05
2022-11-15T09:37:43.560Z,1.98
2022-11-15T09:40:32.086Z,2.00
2022-11-15T09:43:43.957Z,1.70
2022-11-15T09:46:38.788Z,1.90
2022-11-15T09:49:24.519Z,1.70
2022-11-15T09:51:54.453Z,2.00
2022-11-15T09:54:53.277Z,1.55
2022-11-15T09:57:40.582Z,1.83
2022-11-15T10:00:48.913Z,1.80
2022-11-15T10:03:20.994Z,1.35
2022-11-15T10:05:49.565Z,1.70
2022-11-15T10:08:36.768Z,1.80
2022-11-15T10:14:00.490Z,1.50
2022-11-15T10:17:06.180Z,1.30
2022-11-15T10:19:41.933Z,1.90
2022-11-15T10:22:22.245Z,1.90
2022-11-15T10:24:51.642Z,2.10
2022-11-15T10:27:20.025Z,1.35
2022-11-15T10:29:49.639Z,1.73
2022-11-15T10:32:21.902Z,1.65
2022-11-15T10:34:50.676Z,1.75
2022-11-15T10:37:31.771Z,1.80
2022-11-15T10:40:24.993Z,1.95
2022-11-15T10:43:08.547Z,2.10
2022-11-15T10:45:35.672Z,2.10
2022-11-15T10:48:23.906Z,2.33
2022-11-15T10:50:52.904Z,1.98
2022-11-15T10:53:25.345Z,1.70
2022-11-15T10:55:57.103Z,1.63
2022-11-15T10:58:38.546Z,2.78
2022-11-15T11:01:12.620Z,1.65
2022-11-15T11:03:42.479Z,1.40
2022-11-15T11:06:18.254Z,1.90
2022-11-15T11:09:04.796Z,2.15
2022-11-15T11:11:46.821Z,2.03
2022-11-15T11:14:22.059Z,1.83
2022-11-15T11:16:54.228Z,1.70
2022-11-15T11:19:58.253Z,1.95
2022-11-15T11:22:47.996Z,2.03
2022-11-15T11:25:34.321Z,1.90
2022-11-15T11:28:24.630Z,2.00
2022-11-15T11:31:18.375Z,1.38
2022-11-15T11:34:10.214Z,1.20
2022-11-15T11:36:37.325Z,1.63
2022-11-15T11:39:33.486Z,1.70
2022-11-15T11:42:20.509Z,1.50
2022-11-15T11:45:11.704Z,1.40
2022-11-15T11:47:45.106Z,1.50
2022-11-15T11:50:26.073Z,1.63
2022-11-15T11:53:06.774Z,1.50
2022-11-15T11:55:39.772Z,1.42
2022-11-15T11:58:27.920Z,1.55
2022-11-15T12:01:21.905Z,1.58
2022-11-15T12:04:05.559Z,1.67
2022-11-15T12:06:47.706Z,1.60
2022-11-15T12:09:17.673Z,1.67
2022-11-15T12:11:59.398Z,1.27
2022-11-15T12:14:41.205Z,1.58
2022-11-15T12:17:12.556Z,1.50
2022-11-15T12:19:40.770Z,1.17
2022-11-15T12:22:11.654Z,1.35
2022-11-15T12:24:46.877Z,1.20
2022-11-15T12:27:20.633Z,1.27
2022-11-15T12:29:57.321Z,1.13
2022-11-15T12:32:27.924Z,1.30
2022-11-15T12:34:56.572Z,1.50
2022-11-15T12:37:38.988Z,1.27
2022-11-15T12:40:24.728Z,1.05
2022-11-15T12:43:16.481Z,1.50
2022-11-15T12:45:45.632Z,1.42
2022-11-15T12:48:18.543Z,1.45
2022-11-15T12:50:56.118Z,1.60
2022-11-15T12:53:26.414Z,1.10
2022-11-15T12:56:16.725Z,1.05
2022-11-15T12:59:00.732Z,1.15
2022-11-15T13:01:33.838Z,1.38
2022-11-15T13:04:19.624Z,1.60
2022-11-15T13:07:06.847Z,1.70
2022-11-15T13:09:36.571Z,1.73
2022-11-15T13:12:04.526Z,1.30
2022-11-15T13:14:45.053Z,1.45
2022-11-15T13:17:18.129Z,1.35
2022-11-15T13:19:47.452Z,1.52
2022-11-15T13:22:15.377Z,1.80
2022-11-15T13:24:42.522Z,1.55
2022-11-15T13:27:19.181Z,1.75
2022-11-15T13:29:46.331Z,1.25
2022-11-15T13:32:15.741Z,1.35
2022-11-15T13:34:52.044Z,1.70
2022-11-15T13:37:22.464Z,1.30
2022-11-15T13:39:50.880Z,1.58
2022-11-15T13:42:19.990Z,1.98
2022-11-15T13:45:05.079Z,1.52
2022-11-15T13:47:32.979Z,1.50
2022-11-15T13:50:01.093Z,1.52
2022-11-15T13:55:10.422Z,1.60
2022-11-15T13:57:46.654Z,2.13
2022-11-15T14:00:28.741Z,2.30
2022-11-15T14:02:56.952Z,1.55
2022-11-15T14:07:59.901Z,1.95
2022-11-15T14:10:34.383Z,1.98
2022-11-15T14:13:02.551Z,1.20
2022-11-15T14:15:38.215Z,1.83
2022-11-15T14:18:06.340Z,2.30
2022-11-15T14:20:38.437Z,1.83
2022-11-15T14:23:24.402Z,2.17
2022-11-15T14:25:56.903Z,1.83
2022-11-15T14:28:23.958Z,1.85
2022-11-15T14:30:53.527Z,1.90
2022-11-15T14:33:29.326Z,2.15
2022-11-15T14:35:57.929Z,1.95
2022-11-15T14:38:26.580Z,1.80
2022-11-15T14:40:54.062Z,2.08
2022-11-15T14:43:21.139Z,2.85
2022-11-15T14:45:48.222Z,2.53
2022-11-15T14:48:15.394Z,2.15
2022-11-15T14:50:42.461Z,2.00
2022-11-15T14:53:17.411Z,1.90
2022-11-15T14:55:44.974Z,1.67
2022-11-15T14:58:12.097Z,1.85
2022-11-15T15:00:41.079Z,2.40
2022-11-15T15:03:09.475Z,2.33
2022-11-15T15:05:39.197Z,1.70
2022-11-15T15:08:07.087Z,2.20
2022-11-15T15:10:41.448Z,2.50
2022-11-15T15:13:23.516Z,2.28
2022-11-15T15:15:52.185Z,1.63
2022-11-15T15:18:21.123Z,1.60
2022-11-15T15:20:57.910Z,1.60
2022-11-15T15:23:25.234Z,1.80
2022-11-15T15:25:52.555Z,1.57
2022-11-15T15:28:19.691Z,1.20
2022-11-15T15:30:46.797Z,1.42
2022-11-15T15:33:13.877Z,1.55
2022-11-15T15:35:41.034Z,1.73
2022-11-15T15:38:12.188Z,1.75
2022-11-15T15:40:39.383Z,2.13
2022-11-15T15:43:06.604Z,1.98
2022-11-15T15:45:33.948Z,2.90
2022-11-15T15:48:00.983Z,2.07
2022-11-15T15:50:30.848Z,2.40
2022-11-15T15:52:59.989Z,1.65
2022-11-15T15:55:27.886Z,1.88
2022-11-15T15:57:55.224Z,1.83
2022-11-15T16:00:24.476Z,2.20
2022-11-15T16:02:52.644Z,2.90
2022-11-15T16:07:46.902Z,2.10
2022-11-15T16:10:20.452Z,1.50
2022-11-15T16:12:48.474Z,1.73
2022-11-15T16:15:15.858Z,1.88
2022-11-15T16:17:48.674Z,2.57
2022-11-15T16:20:43.827Z,1.80
2022-11-15T16:23:14.342Z,2.67
2022-11-15T16:25:55.193Z,3.58
2022-11-15T16:28:33.290Z,3.10
2022-11-15T16:31:11.985Z,3.30
2022-11-15T16:33:40.241Z,4.25
2022-11-15T16:36:22.416Z,4.32
2022-11-15T16:38:51.809Z,3.00
2022-11-15T16:41:19.650Z,2.45
2022-11-15T16:43:47.001Z,2.72
2022-11-15T16:46:18.798Z,2.63
2022-11-15T16:48:46.315Z,2.85
2022-11-15T16:51:13.501Z,1.95
2022-11-15T16:53:41.137Z,2.43
2022-11-15T16:56:19.377Z,1.85
2022-11-15T16:58:46.624Z,1.73
2022-11-15T17:01:26.248Z,2.33
2022-11-15T17:03:54.012Z,2.83
2022-11-15T17:06:25.976Z,3.00
2022-11-15T17:08:53.245Z,2.20
2022-11-15T17:11:22.676Z,2.40
2022-11-15T17:13:50.080Z,2.30
2022-11-15T17:16:18.326Z,2.55
2022-11-15T17:21:15.716Z,2.40
2022-11-15T17:23:43.290Z,2.10
2022-11-15T17:26:28.791Z,2.58
2022-11-15T17:28:57.014Z,2.42
2022-11-15T17:31:24.229Z,1.90
2022-11-15T17:33:51.289Z,2.25
2022-11-15T17:36:18.532Z,2.10
2022-11-15T17:38:45.608Z,2.53
2022-11-15T17:41:14.467Z,1.90
2022-11-15T17:43:42.168Z,1.73
2022-11-15T17:46:17.521Z,1.60
2022-11-15T17:48:45.821Z,1.70
2022-11-15T17:51:16.249Z,2.05
2022-11-15T17:53:45.857Z,2.13
2022-11-15T17:56:15.558Z,1.77
2022-11-15T17:58:47.066Z,2.28
2022-11-15T18:01:24.551Z,1.60
2022-11-15T18:03:52.739Z,2.38
2022-11-15T18:08:49.227Z,2.78
2022-11-15T18:11:19.536Z,2.25
2022-11-15T18:13:52.086Z,2.70
2022-11-15T18:16:21.933Z,3.15
2022-11-15T18:18:49.264Z,2.97
2022-11-15T18:21:19.331Z,3.53
2022-11-15T18:23:46.649Z,3.03
2022-11-15T18:26:15.639Z,3.40
2022-11-15T18:28:47.298Z,2.80
2022-11-15T18:31:22.865Z,3.60
2022-11-15T18:33:51.399Z,4.00
2022-11-15T18:36:23.367Z,4.43
2022-11-15T18:39:01.268Z,4.28
2022-11-15T18:41:28.756Z,4.50
2022-11-15T18:43:57.235Z,4.55
2022-11-15T18:46:26.465Z,5.63
2022-11-15T18:48:55.234Z,5.40
2022-11-15T18:51:25.298Z,4.40
2022-11-15T18:53:53.870Z,4.15
2022-11-15T18:56:22.382Z,3.33
2022-11-15T18:58:52.331Z,4.05
2022-11-15T19:01:25.306Z,3.45
2022-11-15T19:03:55.273Z,3.83
2022-11-15T19:06:24.840Z,3.15
2022-11-15T19:08:53.783Z,4.32
2022-11-15T19:11:23.752Z,7.63
2022-11-15T19:13:55.485Z,7.65
2022-11-15T19:16:23.440Z,13.68
2022-11-15T19:18:55.402Z,10.75
2022-11-15T19:21:23.342Z,9.45
2022-11-15T19:23:50.751Z,8.05
2022-11-15T19:26:17.753Z,4.37
2022-11-15T19:28:44.993Z,4.60
2022-11-15T19:31:17.725Z,3.38
2022-11-15T19:33:45.598Z,3.22
2022-11-15T19:36:20.178Z,2.70
2022-11-15T19:38:47.605Z,2.35
2022-11-15T19:41:17.415Z,3.33
2022-11-15T19:43:45.011Z,2.88
2022-11-15T19:46:12.432Z,3.05
2022-11-15T19:48:39.510Z,2.88
2022-11-15T19:51:10.415Z,2.00
2022-11-15T19:53:38.564Z,2.17
2022-11-15T19:56:08.375Z,2.75
2022-11-15T19:58:35.557Z,2.53
2022-11-15T20:01:08.190Z,2.15
2022-11-15T20:03:36.319Z,1.92
2022-11-15T20:06:26.191Z,3.40
2022-11-15T20:08:53.568Z,3.40
2022-11-15T20:11:21.097Z,3.87
2022-11-15T20:13:48.242Z,4.50
2022-11-15T20:16:20.585Z,3.53
2022-11-15T20:18:49.572Z,3.38
2022-11-15T20:21:17.099Z,4.10
2022-11-15T20:23:44.421Z,3.38
2022-11-15T20:26:11.849Z,4.00
2022-11-15T20:28:40.183Z,3.53
2022-11-15T20:31:07.949Z,3.95
2022-11-15T20:33:35.199Z,3.65
2022-11-15T20:36:07.058Z,4.80
2022-11-15T20:38:34.620Z,3.63
2022-11-15T20:41:02.031Z,4.78
2022-11-15T20:43:29.528Z,7.33
2022-11-15T20:45:56.580Z,6.57
2022-11-15T20:48:23.748Z,5.80
2022-11-15T20:50:51.619Z,6.38
2022-11-15T20:53:19.941Z,6.43
2022-11-15T20:55:48.985Z,6.50
2022-11-15T20:58:17.131Z,6.35
2022-11-15T21:03:13.364Z,5.95
2022-11-15T21:05:42.483Z,5.10
2022-11-15T21:08:11.660Z,6.15
2022-11-15T21:10:40.660Z,6.50
2022-11-15T21:13:07.734Z,5.40
2022-11-15T21:15:34.788Z,5.85
2022-11-15T21:18:01.917Z,5.88
2022-11-15T21:20:29.108Z,5.68
2022-11-15T21:22:56.197Z,6.17
2022-11-15T21:25:23.375Z,6.35
2022-11-15T21:27:50.454Z,5.88
2022-11-15T21:30:17.790Z,5.97
2022-11-15T21:32:45.786Z,5.97
2022-11-15T21:35:12.882Z,5.60
2022-11-15T21:37:40.077Z,6.17
2022-11-15T21:40:07.971Z,6.43
2022-11-15T21:42:35.272Z,5.75
2022-11-15T21:45:02.363Z,6.23
2022-11-15T21:47:29.420Z,6.65
2022-11-15T21:49:56.636Z,6.80
2022-11-15T21:52:23.699Z,5.68
2022-11-15T21:54:50.775Z,5.88
2022-11-15T21:57:17.936Z,7.10
2022-11-15T21:59:45.023Z,5.65
2022-11-15T22:02:12.117Z,6.88
2022-11-15T22:04:39.327Z,5.57
2022-11-15T22:07:06.536Z,6.57
2022-11-15T22:09:33.753Z,8.20
2022-11-15T22:12:00.796Z,6.93
2022-11-15T22:14:27.991Z,7.47
2022-11-15T22:16:55.181Z,6.90
2022-11-15T22:19:22.277Z,7.50
2022-11-15T22:21:49.366Z,6.88
2022-11-15T22:24:16.617Z,5.60
2022-11-15T22:26:43.726Z,6.28
2022-11-15T22:29:10.829Z,5.82
2022-11-15T22:31:37.978Z,6.13
2022-11-15T22:34:05.312Z,6.30
2022-11-15T22:36:46.954Z,5.15
2022-11-15T22:39:19.742Z,4.88
2022-11-15T22:41:47.015Z,5.63
2022-11-15T22:44:14.125Z,5.30
2022-11-15T22:46:41.312Z,4.50
2022-11-15T22:49:08.420Z,5.60
2022-11-15T22:51:35.694Z,4.82
2022-11-15T22:54:02.806Z,5.68
2022-11-15T22:56:30.141Z,4.95
2022-11-15T22:58:57.288Z,5.57
2022-11-15T23:01:24.477Z,6.17
2022-11-15T23:03:51.754Z,5.07
2022-11-15T23:06:18.837Z,5.43
2022-11-15T23:08:46.188Z,5.70
2022-11-15T23:11:13.561Z,4.85
2022-11-15T23:13:40.658Z,4.75
2022-11-15T23:16:10.122Z,5.00
2022-11-15T23:18:39.774Z,4.53
2022-11-15T23:21:21.969Z,4.55
2022-11-15T23:23:49.353Z,5.28
2022-11-15T23:26:16.418Z,5.67
2022-11-15T23:28:43.562Z,4.50
2022-11-15T23:31:11.091Z,5.00
2022-11-15T23:33:38.702Z,4.25
2022-11-15T23:36:06.532Z,4.40
2022-11-15T23:38:35.122Z,4.40
2022-11-15T23:41:02.802Z,5.95
2022-11-15T23:43:30.193Z,5.80
2022-11-15T23:45:57.299Z,6.15
2022-11-15T23:48:24.397Z,6.40
2022-11-15T23:50:51.605Z,5.47
2022-11-15T23:53:18.868Z,4.95
2022-11-15T23:56:13.454Z,6.20
2022-11-15T23:58:41.922Z,5.88
